Aérodrome :
LOGIN :

S'inscrire | Disclaimer

   EN    FR    IT 

 










Légende :    VFR   VFR Marginal   IFR   IFR Intensif   IFR Très Intensif
Visi : 
Plafond : 
>= 8 km
>= 3000ft
5 à 8 km
1000 à 3000 ft
1500m à 5 km
500 à 1000 ft
800 à 1500m
200 à 500 ft
< 800m
< 200 ft
Symboles :   Orages  Brouillard  Fortes neiges  Fortes précipitations  Vent > 20 kt
SIGMETs :   Divers  Orages  Givrage  Turbulence  Onde Orograph.  Cendres Volcan.







- Altitude de l'aérodrome : 122 ft
- Code IATA : TXL


EDDT - Berlin Tegel Int.

DERNIER METAR :
  • 181220Z 25012KT 9999 FEW022 02/M04 Q1017 NOSIG

METARs EXPIRÉS :
  • 181150Z 27011KT 9999 FEW022 02/M04 Q1017 NOSIG
  • 181120Z 27007KT 230V300 9999 FEW021 01/M03 Q1017 NOSIG
  • 181050Z 28010KT 250V320 9999 FEW018 01/M03 Q1017 NOSIG
  • 181020Z 27008KT 9999 FEW017 00/M04 Q1017 NOSIG
  • 180950Z 29008KT 250V320 9999 FEW026 00/M04 Q1017 NOSIG

TAF TAF EDDT
Valide du 18 à 12h jusqu'au 19 à 12h UTC


181100Z 1812/1912 29010KT 9999 SCT020
BECMG 1813/1816 23005KT
PROB30
TEMPO 1815/1819 4000 -SN BKN012
BECMG 1908/1912 14005KT
Pas de NOTAMs connus pour ce terrain.



MET'MAP, la Météo Aéronautique d'un coup d'oeil ! - Copyright ORBIFLY Décembre 2007 - Disclaimer

ORBIFLY MET'MAP TEAM :

Programmation & Développement : Alexandra Zaïnal
Conception & Développement : Baudouin d'Aumeries
Co-Programmation & Développement : Marc-Olivier Méhu
Soutien technique & logistique : Manuel Goepfert

Contact : metmap@orbifly.com




SOURCES & CREDITS :

   NOAA